createdAt,value
2022-11-16T00:01:06.007Z,63.49
2022-11-16T00:03:34.821Z,62.68
2022-11-16T00:06:04.540Z,63.28
2022-11-16T00:08:34.704Z,63.37
2022-11-16T00:11:11.772Z,63.56
2022-11-16T00:13:40.107Z,63.75
2022-11-16T00:16:09.123Z,64.00
2022-11-16T00:18:36.221Z,63.68
2022-11-16T00:21:05.585Z,63.56
2022-11-16T00:23:32.950Z,63.39
2022-11-16T00:26:08.197Z,63.23
2022-11-16T00:28:37.803Z,64.08
2022-11-16T00:31:06.974Z,63.60
2022-11-16T00:33:34.897Z,63.85
2022-11-16T00:36:03.822Z,63.64
2022-11-16T00:38:31.303Z,63.85
2022-11-16T00:40:58.993Z,63.84
2022-11-16T00:43:26.692Z,63.74
2022-11-16T00:45:53.905Z,63.31
2022-11-16T00:48:21.559Z,63.85
2022-11-16T00:50:48.824Z,63.64
2022-11-16T00:53:19.558Z,63.16
2022-11-16T00:55:48.132Z,63.17
2022-11-16T00:58:17.947Z,63.70
2022-11-16T01:00:50.790Z,63.14
2022-11-16T01:03:18.303Z,63.05
2022-11-16T01:05:46.575Z,63.29
2022-11-16T01:08:14.846Z,62.73
2022-11-16T01:10:42.212Z,63.28
2022-11-16T01:13:11.673Z,63.04
2022-11-16T01:15:38.836Z,62.23
2022-11-16T01:18:05.984Z,63.49
2022-11-16T01:20:33.404Z,62.41
2022-11-16T01:23:00.446Z,62.53
2022-11-16T01:25:27.508Z,62.86
2022-11-16T01:27:54.474Z,62.84
2022-11-16T01:30:33.208Z,62.85
2022-11-16T01:33:04.596Z,62.93
2022-11-16T01:35:31.700Z,62.40
2022-11-16T01:42:32.013Z,63.72
2022-11-16T01:45:08.125Z,63.39
2022-11-16T01:47:35.589Z,63.33
2022-11-16T01:50:08.889Z,62.61
2022-11-16T01:52:43.278Z,63.17
2022-11-16T01:55:11.698Z,62.80
2022-11-16T01:57:50.580Z,62.96
2022-11-16T02:00:18.323Z,63.17
2022-11-16T02:02:56.837Z,63.16
2022-11-16T02:05:56.214Z,62.60
2022-11-16T02:08:59.257Z,62.81
2022-11-16T02:11:43.472Z,63.11
2022-11-16T02:14:43.900Z,62.67
2022-11-16T02:17:18.687Z,62.56
2022-11-16T02:20:07.942Z,62.71
2022-11-16T02:23:06.390Z,62.00
2022-11-16T02:25:33.252Z,62.46
2022-11-16T02:28:34.630Z,61.45
2022-11-16T02:31:07.722Z,61.89
2022-11-16T02:33:38.536Z,61.61
2022-11-16T02:36:10.296Z,61.64
2022-11-16T02:38:40.623Z,61.67
2022-11-16T02:41:20.716Z,61.10
2022-11-16T02:44:14.191Z,61.49
2022-11-16T02:46:46.381Z,61.57
2022-11-16T02:49:18.168Z,61.65
2022-11-16T02:51:49.243Z,61.50
2022-11-16T02:54:24.741Z,61.75
2022-11-16T02:57:04.771Z,61.66
2022-11-16T02:59:42.894Z,61.84
2022-11-16T03:02:43.905Z,61.81
2022-11-16T03:05:32.355Z,61.89
2022-11-16T03:08:36.668Z,61.63
2022-11-16T03:11:27.164Z,60.89
2022-11-16T03:14:00.832Z,61.06
2022-11-16T03:16:36.102Z,61.06
2022-11-16T03:19:12.295Z,60.10
2022-11-16T03:21:47.523Z,60.42
2022-11-16T03:24:15.193Z,60.61
2022-11-16T03:26:55.321Z,60.80
2022-11-16T03:29:40.345Z,60.55
2022-11-16T03:32:22.019Z,60.21
2022-11-16T03:34:59.910Z,59.88
2022-11-16T03:37:30.311Z,60.16
2022-11-16T03:40:02.748Z,59.82
2022-11-16T03:42:33.272Z,59.73
2022-11-16T03:45:00.719Z,59.76
2022-11-16T03:47:29.618Z,59.79
2022-11-16T03:49:57.270Z,60.16
2022-11-16T03:52:25.077Z,59.54
2022-11-16T03:54:53.021Z,59.99
2022-11-16T03:57:25.074Z,59.59
2022-11-16T03:59:57.131Z,59.19
2022-11-16T04:02:31.195Z,59.28
2022-11-16T04:05:17.847Z,59.62
2022-11-16T04:08:03.421Z,59.88
2022-11-16T04:10:49.141Z,59.98
2022-11-16T04:13:42.280Z,60.23
2022-11-16T04:16:29.262Z,59.97
2022-11-16T04:19:14.864Z,59.91
2022-11-16T04:22:07.917Z,59.79
2022-11-16T04:24:40.196Z,60.43
2022-11-16T04:27:28.935Z,59.68
2022-11-16T04:29:59.036Z,60.06
2022-11-16T04:32:45.468Z,59.98
2022-11-16T04:35:31.783Z,60.33
2022-11-16T04:37:59.437Z,60.59
2022-11-16T04:40:31.170Z,60.62
2022-11-16T04:43:01.300Z,60.63
2022-11-16T04:45:51.750Z,60.79
2022-11-16T04:48:21.587Z,60.25
2022-11-16T04:50:52.498Z,59.89
2022-11-16T04:53:22.568Z,60.06
2022-11-16T04:56:00.744Z,59.38
2022-11-16T04:58:29.381Z,59.73
2022-11-16T05:00:56.611Z,59.76
2022-11-16T05:03:23.772Z,59.53
2022-11-16T05:05:53.337Z,59.72
2022-11-16T05:08:20.879Z,59.50
2022-11-16T05:10:51.852Z,59.24
2022-11-16T05:13:19.644Z,59.66
2022-11-16T05:15:48.126Z,59.89
2022-11-16T05:18:15.106Z,59.88
2022-11-16T05:21:00.687Z,59.91
2022-11-16T05:23:49.496Z,59.88
2022-11-16T05:26:20.193Z,60.15
2022-11-16T05:28:48.052Z,60.23
2022-11-16T05:31:15.209Z,60.51
2022-11-16T05:33:42.675Z,60.57
2022-11-16T05:36:10.877Z,60.98
2022-11-16T05:38:39.188Z,61.40
2022-11-16T05:41:06.454Z,61.38
2022-11-16T05:43:34.002Z,61.44
2022-11-16T05:46:09.943Z,61.08
2022-11-16T05:48:38.806Z,61.11
2022-11-16T05:51:06.727Z,60.49
2022-11-16T05:53:34.770Z,60.12
2022-11-16T05:56:02.352Z,60.02
2022-11-16T05:58:32.616Z,60.34
2022-11-16T06:01:00.406Z,60.10
2022-11-16T06:03:31.478Z,60.25
2022-11-16T06:05:59.816Z,60.08
2022-11-16T06:08:28.986Z,59.93
2022-11-16T06:11:05.955Z,58.97
2022-11-16T06:13:36.156Z,58.47
2022-11-16T06:16:04.762Z,57.19
2022-11-16T06:18:38.531Z,55.89
2022-11-16T06:21:06.871Z,54.14
2022-11-16T06:23:34.324Z,54.02
2022-11-16T06:26:02.282Z,53.32
2022-11-16T06:28:30.453Z,52.74
2022-11-16T06:30:57.866Z,52.00
2022-11-16T06:33:32.213Z,51.09
2022-11-16T06:36:06.268Z,49.13
2022-11-16T06:38:33.815Z,47.03
2022-11-16T06:41:03.238Z,45.06
2022-11-16T06:43:33.901Z,44.39
2022-11-16T06:46:01.016Z,44.16
2022-11-16T06:48:28.211Z,44.09
2022-11-16T06:50:55.723Z,44.49
2022-11-16T06:53:28.734Z,44.94
2022-11-16T06:56:02.789Z,45.28
2022-11-16T06:58:32.233Z,45.24
2022-11-16T07:01:09.231Z,45.34
2022-11-16T07:03:39.258Z,44.18
2022-11-16T07:06:10.053Z,41.10
2022-11-16T07:08:39.316Z,40.64
2022-11-16T07:11:08.228Z,41.03
2022-11-16T07:13:37.070Z,41.60
2022-11-16T07:16:10.901Z,40.96
2022-11-16T07:18:42.770Z,40.18
2022-11-16T07:21:13.063Z,38.74
2022-11-16T07:23:40.736Z,37.36
2022-11-16T07:26:11.775Z,37.07
2022-11-16T07:28:48.149Z,36.51
2022-11-16T07:31:19.994Z,36.14
2022-11-16T07:33:47.579Z,35.52
2022-11-16T07:36:37.337Z,35.16
2022-11-16T07:39:04.633Z,34.30
2022-11-16T07:41:31.827Z,33.06
2022-11-16T07:44:12.333Z,31.71
2022-11-16T07:46:47.159Z,30.62
2022-11-16T07:49:18.152Z,29.69
2022-11-16T07:51:59.752Z,28.33
2022-11-16T07:54:40.284Z,28.36
2022-11-16T07:57:08.307Z,28.12
2022-11-16T07:59:35.286Z,27.55
2022-11-16T08:02:04.319Z,26.40
2022-11-16T08:04:32.711Z,26.72
2022-11-16T08:07:03.263Z,25.32
2022-11-16T08:09:34.848Z,25.46
2022-11-16T08:12:02.218Z,25.24
2022-11-16T08:14:31.109Z,25.14
2022-11-16T08:16:58.310Z,24.56
2022-11-16T08:19:25.316Z,24.36
2022-11-16T08:21:53.234Z,24.58
2022-11-16T08:24:20.508Z,23.92
2022-11-16T08:26:47.499Z,24.01
2022-11-16T08:29:15.989Z,24.01
2022-11-16T08:31:48.287Z,23.12
2022-11-16T08:34:18.912Z,22.97
2022-11-16T08:36:49.854Z,22.76
2022-11-16T08:39:19.215Z,23.28
2022-11-16T08:41:46.161Z,25.44
2022-11-16T08:44:15.504Z,27.04
2022-11-16T08:46:46.215Z,28.28
2022-11-16T08:49:20.638Z,29.88
2022-11-16T08:51:47.911Z,31.29
2022-11-16T08:54:14.966Z,32.75
2022-11-16T08:56:43.220Z,33.73
2022-11-16T08:59:11.360Z,35.13
2022-11-16T09:01:44.130Z,35.38
2022-11-16T09:04:13.660Z,36.59
2022-11-16T09:06:40.758Z,38.46
2022-11-16T09:09:08.024Z,39.04
2022-11-16T09:11:35.375Z,39.17
2022-11-16T09:14:02.460Z,39.42
2022-11-16T09:16:29.942Z,40.37
2022-11-16T09:18:57.123Z,40.15
2022-11-16T09:21:28.842Z,40.11
2022-11-16T09:23:57.746Z,39.78
2022-11-16T09:26:25.455Z,40.21
2022-11-16T09:28:58.175Z,40.25
2022-11-16T09:31:31.102Z,40.73
2022-11-16T09:33:59.084Z,40.38
2022-11-16T09:36:28.924Z,40.97
2022-11-16T09:39:28.730Z,42.45
2022-11-16T09:41:47.553Z,42.02
2022-11-16T09:44:42.485Z,41.41
2022-11-16T09:47:16.558Z,41.97
2022-11-16T09:49:51.447Z,41.66
2022-11-16T09:52:39.455Z,42.64
2022-11-16T09:55:25.637Z,42.56
2022-11-16T09:57:57.382Z,41.84
2022-11-16T10:00:24.922Z,42.24
2022-11-16T10:03:11.241Z,42.55
2022-11-16T10:05:44.875Z,42.78
2022-11-16T10:08:20.324Z,42.29
2022-11-16T10:11:02.760Z,42.14
2022-11-16T10:13:58.903Z,41.96
2022-11-16T10:16:39.730Z,41.65
2022-11-16T10:19:41.777Z,41.91
2022-11-16T10:22:08.741Z,41.28
2022-11-16T10:24:53.933Z,39.96
2022-11-16T10:27:38.355Z,39.83
2022-11-16T10:30:17.397Z,41.63
2022-11-16T10:33:10.857Z,42.28
2022-11-16T10:35:58.710Z,42.69
2022-11-16T10:38:29.129Z,43.56
2022-11-16T10:41:01.880Z,44.56
2022-11-16T10:43:31.985Z,44.92
2022-11-16T10:46:00.574Z,44.49
2022-11-16T10:49:05.237Z,43.83
2022-11-16T10:51:32.390Z,43.84
2022-11-16T10:53:59.431Z,44.17
2022-11-16T10:56:37.330Z,44.45
2022-11-16T10:59:09.503Z,43.85
2022-11-16T11:01:57.863Z,43.10
2022-11-16T11:04:26.429Z,41.29
2022-11-16T11:06:59.364Z,42.00
2022-11-16T11:09:31.763Z,41.27
2022-11-16T11:12:35.092Z,41.61
2022-11-16T11:15:10.774Z,41.90
2022-11-16T11:17:49.357Z,42.19
2022-11-16T11:20:16.623Z,43.12
2022-11-16T11:23:00.764Z,43.46
2022-11-16T11:25:35.805Z,43.57
2022-11-16T11:28:17.087Z,43.68
2022-11-16T11:30:56.493Z,44.47
2022-11-16T11:33:25.238Z,43.44
2022-11-16T11:36:20.879Z,44.01
2022-11-16T11:39:01.690Z,43.88
2022-11-16T11:41:34.300Z,44.56
2022-11-16T11:44:03.703Z,44.02
2022-11-16T11:47:18.353Z,44.93
2022-11-16T11:49:33.612Z,44.69
2022-11-16T11:52:11.753Z,44.94
2022-11-16T11:54:46.152Z,45.00
2022-11-16T11:57:20.704Z,44.52
2022-11-16T11:59:50.398Z,45.17
2022-11-16T12:02:42.397Z,45.90
2022-11-16T12:05:23.392Z,45.42
2022-11-16T12:08:04.971Z,45.35
2022-11-16T12:10:51.385Z,45.22
2022-11-16T12:13:38.223Z,44.88
2022-11-16T12:16:33.598Z,45.21
2022-11-16T12:19:08.944Z,45.34
2022-11-16T12:21:41.459Z,44.57
2022-11-16T12:24:29.118Z,45.16
2022-11-16T12:26:56.083Z,44.56
2022-11-16T12:29:34.392Z,44.86
2022-11-16T12:32:07.195Z,44.46
2022-11-16T12:35:11.250Z,45.46
2022-11-16T12:37:56.979Z,45.10
2022-11-16T12:40:33.229Z,44.84
2022-11-16T12:43:14.743Z,45.37
2022-11-16T12:45:50.878Z,44.75
2022-11-16T12:48:45.274Z,44.96
2022-11-16T12:51:35.623Z,45.32
2022-11-16T12:54:30.706Z,44.32
2022-11-16T12:57:29.603Z,46.04
2022-11-16T13:00:17.360Z,45.24
2022-11-16T13:02:59.516Z,45.71
2022-11-16T13:05:48.494Z,45.73
2022-11-16T13:08:35.493Z,46.23
2022-11-16T13:11:11.643Z,46.06
2022-11-16T13:13:40.737Z,46.56
2022-11-16T13:16:08.750Z,46.45
2022-11-16T13:18:40.952Z,46.46
2022-11-16T13:21:46.866Z,46.86
2022-11-16T13:24:38.419Z,46.99
2022-11-16T13:27:36.528Z,47.36
2022-11-16T13:30:15.799Z,47.58
2022-11-16T13:33:20.159Z,47.55
2022-11-16T13:35:47.712Z,47.64
2022-11-16T13:38:15.176Z,47.41
2022-11-16T13:40:47.109Z,46.82
2022-11-16T13:43:14.300Z,47.49
2022-11-16T13:45:51.880Z,46.21
2022-11-16T13:48:25.252Z,46.74
2022-11-16T13:50:56.713Z,47.09
2022-11-16T13:56:28.950Z,47.57
2022-11-16T13:58:58.618Z,47.91
2022-11-16T14:01:26.820Z,47.31
2022-11-16T14:04:32.415Z,48.07
2022-11-16T14:07:00.441Z,47.68
2022-11-16T14:09:45.360Z,47.29
2022-11-16T14:12:49.760Z,47.99
2022-11-16T14:15:19.567Z,47.71
2022-11-16T14:18:23.983Z,47.84
2022-11-16T14:21:05.855Z,47.70
2022-11-16T14:23:57.529Z,48.27
2022-11-16T14:26:42.756Z,47.66
2022-11-16T14:29:28.162Z,47.49
2022-11-16T14:31:57.771Z,47.44
2022-11-16T14:34:32.789Z,47.77
2022-11-16T14:37:00.912Z,47.86
2022-11-16T14:39:38.272Z,47.77
2022-11-16T14:42:16.120Z,48.31
2022-11-16T14:44:44.415Z,48.92
2022-11-16T14:47:25.327Z,48.35
2022-11-16T14:49:54.761Z,48.91
2022-11-16T14:52:38.143Z,49.09
2022-11-16T14:55:08.425Z,49.06
2022-11-16T14:57:38.386Z,49.67
2022-11-16T15:00:23.523Z,49.00
2022-11-16T15:03:02.113Z,49.82
2022-11-16T15:05:34.936Z,49.40
2022-11-16T15:08:08.051Z,49.17
2022-11-16T15:10:35.876Z,48.73
2022-11-16T15:13:03.926Z,48.56
2022-11-16T15:15:32.008Z,48.68
2022-11-16T15:17:59.307Z,48.97
2022-11-16T15:20:29.805Z,48.81
2022-11-16T15:22:59.713Z,48.48
2022-11-16T15:25:43.847Z,49.48
2022-11-16T15:28:20.689Z,48.73
2022-11-16T15:30:53.006Z,48.90
2022-11-16T15:33:30.418Z,48.35
2022-11-16T15:35:58.228Z,47.51
2022-11-16T15:38:27.993Z,47.61
2022-11-16T15:40:57.842Z,48.28
2022-11-16T15:43:38.092Z,48.39
2022-11-16T15:46:08.994Z,48.65
2022-11-16T15:48:38.834Z,49.38
2022-11-16T15:51:17.131Z,48.66
2022-11-16T15:53:46.841Z,49.05
2022-11-16T15:56:22.034Z,49.50
2022-11-16T15:58:49.621Z,49.45
2022-11-16T16:01:17.729Z,49.33
2022-11-16T16:03:58.015Z,49.30
2022-11-16T16:06:49.490Z,48.79
2022-11-16T16:09:34.117Z,48.97
2022-11-16T16:12:29.549Z,48.38
2022-11-16T16:15:32.143Z,48.79
2022-11-16T16:18:40.087Z,49.16
2022-11-16T16:21:10.536Z,49.95
2022-11-16T16:23:49.620Z,49.60
2022-11-16T16:26:17.539Z,48.50
2022-11-16T16:28:50.519Z,48.13
2022-11-16T16:31:20.626Z,48.55
2022-11-16T16:33:50.041Z,48.99
2022-11-16T16:36:17.777Z,49.14
2022-11-16T16:38:44.784Z,49.48
2022-11-16T16:41:24.471Z,49.16
2022-11-16T16:43:52.201Z,49.49
2022-11-16T16:46:19.982Z,49.95
2022-11-16T16:48:47.817Z,49.97
2022-11-16T16:51:15.551Z,48.93
2022-11-16T16:53:42.639Z,49.50
2022-11-16T16:56:16.600Z,48.67
2022-11-16T16:58:43.636Z,49.41
2022-11-16T17:01:11.640Z,48.72
2022-11-16T17:03:38.762Z,48.82
2022-11-16T17:06:06.264Z,48.78
2022-11-16T17:08:35.989Z,48.19
2022-11-16T17:11:04.347Z,49.43
2022-11-16T17:13:31.849Z,49.19
2022-11-16T17:16:05.346Z,49.12
2022-11-16T17:18:32.324Z,48.49
2022-11-16T17:21:04.809Z,49.08
2022-11-16T17:23:32.122Z,49.43
2022-11-16T17:26:03.053Z,48.75
2022-11-16T17:28:33.062Z,48.57
2022-11-16T17:31:07.791Z,48.50
2022-11-16T17:33:36.977Z,47.97
2022-11-16T17:36:06.460Z,47.53
2022-11-16T17:38:35.336Z,48.68
2022-11-16T17:41:09.639Z,47.92
2022-11-16T17:43:37.014Z,49.20
2022-11-16T17:46:12.599Z,48.47
2022-11-16T17:48:44.449Z,47.07
2022-11-16T17:51:13.396Z,48.26
2022-11-16T17:53:46.468Z,48.33
2022-11-16T17:56:18.803Z,48.77
2022-11-16T17:58:50.379Z,48.25
2022-11-16T18:01:17.601Z,47.87
2022-11-16T18:03:49.508Z,47.93
2022-11-16T18:06:24.493Z,46.96
2022-11-16T18:08:55.026Z,47.53
2022-11-16T18:11:25.431Z,47.60
2022-11-16T18:13:57.323Z,47.34
2022-11-16T18:16:30.853Z,48.17
2022-11-16T18:19:07.606Z,47.19
2022-11-16T18:21:42.590Z,46.76
2022-11-16T18:24:10.812Z,47.19
2022-11-16T18:26:39.284Z,47.09
2022-11-16T18:29:07.485Z,46.73
2022-11-16T18:31:35.375Z,47.11
2022-11-16T18:34:02.882Z,47.04
2022-11-16T18:36:30.545Z,46.98
2022-11-16T18:38:57.545Z,46.33
2022-11-16T18:41:31.086Z,46.58
2022-11-16T18:44:01.178Z,46.61
2022-11-16T18:46:31.777Z,47.36
2022-11-16T18:49:00.103Z,47.68
2022-11-16T18:51:29.167Z,48.43
2022-11-16T18:53:56.306Z,48.59
2022-11-16T18:56:24.189Z,47.99
2022-11-16T18:58:53.983Z,49.58
2022-11-16T19:01:24.134Z,50.01
2022-11-16T19:03:53.005Z,50.73
2022-11-16T19:06:20.614Z,49.38
2022-11-16T19:08:55.279Z,49.04
2022-11-16T19:11:24.174Z,49.30
2022-11-16T19:13:57.432Z,47.98
2022-11-16T19:16:27.327Z,47.39
2022-11-16T19:19:02.092Z,47.51
2022-11-16T19:21:33.022Z,46.51
2022-11-16T19:24:02.692Z,46.42
2022-11-16T19:26:32.666Z,47.70
2022-11-16T19:29:05.117Z,46.47
2022-11-16T19:31:33.245Z,46.56
2022-11-16T19:34:06.265Z,46.06
2022-11-16T19:36:37.755Z,47.57
2022-11-16T19:39:06.026Z,45.68
2022-11-16T19:41:33.737Z,45.78
2022-11-16T19:44:02.082Z,45.72
2022-11-16T19:46:32.015Z,46.34
2022-11-16T19:49:09.052Z,45.88
2022-11-16T19:51:36.512Z,46.87
2022-11-16T19:54:03.604Z,46.52
2022-11-16T19:56:30.923Z,46.73
2022-11-16T19:59:01.395Z,47.48
2022-11-16T20:01:29.702Z,47.81
2022-11-16T20:03:59.977Z,46.87
2022-11-16T20:06:32.907Z,46.54
2022-11-16T20:09:20.177Z,46.88
2022-11-16T20:11:51.800Z,46.32
2022-11-16T20:14:18.965Z,46.25
2022-11-16T20:16:50.092Z,45.73
2022-11-16T20:19:19.451Z,45.98
2022-11-16T20:21:49.537Z,46.43
2022-11-16T20:24:18.102Z,46.45
2022-11-16T20:26:49.401Z,45.85
2022-11-16T20:29:19.594Z,46.29
2022-11-16T20:31:47.340Z,47.15
2022-11-16T20:34:18.991Z,47.93
2022-11-16T20:36:51.011Z,47.53
2022-11-16T20:39:20.673Z,48.41
2022-11-16T20:41:48.411Z,49.50
2022-11-16T20:44:32.555Z,49.13
2022-11-16T20:47:02.729Z,49.69
2022-11-16T20:49:33.275Z,50.11
2022-11-16T20:52:05.911Z,49.90
2022-11-16T20:54:33.789Z,50.57
2022-11-16T20:57:04.625Z,50.25
2022-11-16T20:59:33.019Z,50.76
2022-11-16T21:02:10.679Z,50.71
2022-11-16T21:04:37.993Z,50.78
2022-11-16T21:07:08.108Z,50.73
2022-11-16T21:13:19.713Z,50.88
2022-11-16T21:16:22.074Z,50.47
2022-11-16T21:18:51.780Z,50.79
2022-11-16T21:21:20.244Z,50.66
2022-11-16T21:23:51.863Z,50.95
2022-11-16T21:26:21.259Z,51.72
2022-11-16T21:28:48.816Z,52.09
2022-11-16T21:31:21.490Z,51.29
2022-11-16T21:33:48.997Z,51.69
2022-11-16T21:36:18.859Z,51.98
2022-11-16T21:38:47.052Z,51.19
2022-11-16T21:41:17.547Z,51.98
2022-11-16T21:43:46.524Z,51.31
2022-11-16T21:46:19.298Z,50.49
2022-11-16T21:48:48.349Z,50.96
2022-11-16T21:51:18.166Z,50.58
2022-11-16T21:53:45.587Z,50.12
2022-11-16T21:56:15.047Z,50.80
2022-11-16T21:58:42.751Z,50.05
2022-11-16T22:01:12.094Z,50.27
2022-11-16T22:03:44.839Z,50.11
2022-11-16T22:06:34.785Z,49.65
2022-11-16T22:09:05.194Z,50.46
2022-11-16T22:11:32.244Z,50.08
2022-11-16T22:13:59.470Z,50.17
2022-11-16T22:16:26.546Z,50.32
2022-11-16T22:18:53.602Z,49.61
2022-11-16T22:21:20.664Z,49.65
2022-11-16T22:23:47.570Z,49.63
2022-11-16T22:26:14.898Z,50.34
2022-11-16T22:28:45.217Z,50.19
2022-11-16T22:31:14.956Z,49.11
2022-11-16T22:33:42.644Z,49.11
2022-11-16T22:36:10.930Z,49.01
2022-11-16T22:38:38.188Z,48.97
2022-11-16T22:41:06.652Z,49.56
2022-11-16T22:43:36.243Z,49.54
2022-11-16T22:46:06.396Z,50.06
2022-11-16T22:48:37.408Z,49.80
2022-11-16T22:51:07.891Z,50.06
2022-11-16T22:53:35.560Z,50.33
2022-11-16T22:56:08.643Z,50.02
2022-11-16T22:58:37.334Z,50.62
2022-11-16T23:01:07.506Z,50.50
2022-11-16T23:03:35.380Z,50.54
2022-11-16T23:06:04.030Z,49.71
2022-11-16T23:08:31.996Z,50.31
2022-11-16T23:11:26.297Z,50.63
2022-11-16T23:14:12.791Z,49.47
2022-11-16T23:16:40.859Z,50.70
2022-11-16T23:19:28.329Z,50.04
2022-11-16T23:22:14.474Z,50.77
2022-11-16T23:25:00.758Z,51.44
2022-11-16T23:27:34.346Z,50.56
2022-11-16T23:30:09.212Z,50.91
2022-11-16T23:32:39.141Z,50.77
2022-11-16T23:35:06.617Z,51.44
2022-11-16T23:37:33.555Z,52.05
2022-11-16T23:40:00.609Z,51.68
2022-11-16T23:42:46.206Z,51.94
2022-11-16T23:45:13.412Z,52.17
2022-11-16T23:47:40.451Z,52.14
2022-11-16T23:50:07.733Z,52.12
2022-11-16T23:52:34.815Z,52.44
2022-11-16T23:55:01.831Z,52.67
2022-11-16T23:57:30.495Z,52.39
2022-11-16T23:59:57.534Z,51.95
